TAF and METAR

METAR for F3-Fb-1 Sea

EHFD 141455Z AUTO 12010KT 060V160 9999 FEW027/// SCT032/// BKN037/// 05/M02 Q1026 W///H///
Report created 14. des 15:55
report generated by an automatic observation system. wind 10 knots from ESE (120°) Wind direction varies from ENE to SSE visibility > 10km some clouds (~25% cover) at 2700 feet scattered clouds (~50% cover) at 3200 feet broken clouds (~75% cover) at 3700 feet Temperature 5° with dewpoint at -2° (Humidity 60.51%) Pressure 1026 hPa
No TAF available for F3-Fb-1 Sea
F3-Fb-1 Sea in Netherlands at 50m

Latest 5 airports